createdAt,value
2022-07-29T00:00:00.330Z,15.52
2022-07-29T00:02:27.861Z,15.51
2022-07-29T00:04:54.474Z,15.50
2022-07-29T00:07:22.263Z,15.48
2022-07-29T00:09:50.839Z,15.46
2022-07-29T00:12:26.561Z,15.43
2022-07-29T00:14:54.336Z,15.40
2022-07-29T00:17:24.476Z,15.38
2022-07-29T00:19:53.495Z,15.34
2022-07-29T00:22:20.948Z,15.31
2022-07-29T00:24:49.173Z,15.29
2022-07-29T00:27:16.014Z,15.24
2022-07-29T00:29:42.432Z,15.22
2022-07-29T00:32:08.936Z,15.21
2022-07-29T00:34:54.148Z,15.20
2022-07-29T00:37:20.703Z,15.18
2022-07-29T00:39:47.221Z,15.16
2022-07-29T00:42:13.749Z,15.14
2022-07-29T00:44:41.691Z,15.12
2022-07-29T00:47:10.041Z,15.10
2022-07-29T00:49:37.077Z,15.06
2022-07-29T00:52:08.252Z,15.01
2022-07-29T00:54:35.049Z,14.99
2022-07-29T00:57:02.171Z,14.98
2022-07-29T00:59:34.405Z,14.95
2022-07-29T01:02:05.701Z,14.92
2022-07-29T01:04:33.072Z,14.89
2022-07-29T01:07:02.684Z,14.87
2022-07-29T01:09:42.216Z,14.83
2022-07-29T01:12:16.841Z,14.81
2022-07-29T01:14:45.062Z,14.78
2022-07-29T01:17:34.058Z,14.75
2022-07-29T01:20:31.636Z,14.73
2022-07-29T01:23:07.194Z,14.70
2022-07-29T01:26:08.855Z,14.68
2022-07-29T01:28:50.054Z,14.66
2022-07-29T01:31:26.541Z,14.63
2022-07-29T01:34:02.994Z,14.61
2022-07-29T01:36:50.986Z,14.60
2022-07-29T01:39:36.973Z,14.58
2022-07-29T01:42:13.757Z,14.55
2022-07-29T01:44:56.343Z,14.53
2022-07-29T01:47:30.213Z,14.50
2022-07-29T01:49:58.600Z,14.47
2022-07-29T01:52:38.334Z,14.44
2022-07-29T01:55:16.931Z,14.41
2022-07-29T01:57:47.415Z,14.36
2022-07-29T02:00:15.013Z,14.33
2022-07-29T02:02:46.130Z,14.30
2022-07-29T02:05:16.165Z,14.28
2022-07-29T02:07:45.760Z,14.23
2022-07-29T02:10:13.715Z,14.18
2022-07-29T02:12:42.843Z,14.15
2022-07-29T02:15:17.039Z,14.11
2022-07-29T02:17:51.892Z,14.08
2022-07-29T02:20:18.742Z,14.04
2022-07-29T02:22:54.584Z,13.99
2022-07-29T02:25:24.414Z,13.97
2022-07-29T02:27:52.765Z,13.96
2022-07-29T02:30:22.379Z,13.96
2022-07-29T02:32:51.207Z,13.94
2022-07-29T02:35:20.524Z,13.92
2022-07-29T02:38:08.934Z,13.90
2022-07-29T02:40:39.398Z,13.88
2022-07-29T02:43:07.856Z,13.87
2022-07-29T02:45:37.617Z,13.86
2022-07-29T02:48:11.025Z,13.86
2022-07-29T02:50:50.870Z,13.85
2022-07-29T02:53:24.546Z,13.85
2022-07-29T02:55:50.837Z,13.84
2022-07-29T02:58:28.883Z,13.83
2022-07-29T03:01:21.597Z,13.82
2022-07-29T03:03:51.171Z,13.80
2022-07-29T03:06:37.390Z,13.81
2022-07-29T03:09:12.885Z,13.81
2022-07-29T03:11:49.652Z,13.80
2022-07-29T03:14:19.810Z,13.78
2022-07-29T03:16:47.334Z,13.77
2022-07-29T03:19:14.344Z,13.76
2022-07-29T03:21:41.864Z,13.75
2022-07-29T03:24:10.804Z,13.76
2022-07-29T03:26:38.791Z,13.77
2022-07-29T03:29:05.758Z,13.77
2022-07-29T03:31:33.463Z,13.77
2022-07-29T03:34:01.981Z,13.77
2022-07-29T03:36:28.337Z,13.81
2022-07-29T03:38:56.192Z,13.85
2022-07-29T03:41:24.972Z,13.89
2022-07-29T03:43:53.369Z,14.00
2022-07-29T03:46:22.507Z,14.14
2022-07-29T03:48:53.985Z,14.26
2022-07-29T03:51:34.083Z,14.38
2022-07-29T03:54:09.917Z,14.51
2022-07-29T03:56:52.477Z,14.67
2022-07-29T03:59:24.941Z,14.89
2022-07-29T04:01:52.213Z,15.15
2022-07-29T04:04:19.237Z,15.49
2022-07-29T04:06:48.360Z,15.94
2022-07-29T04:09:15.351Z,16.39
2022-07-29T04:12:01.979Z,16.80
2022-07-29T04:14:33.138Z,17.21
2022-07-29T04:17:00.351Z,17.60
2022-07-29T04:19:27.132Z,18.01
2022-07-29T04:21:53.827Z,18.39
2022-07-29T04:24:20.605Z,18.78
2022-07-29T04:26:48.573Z,19.13
2022-07-29T04:29:17.831Z,19.48
2022-07-29T04:31:45.232Z,19.82
2022-07-29T04:34:12.154Z,20.02
2022-07-29T04:36:38.660Z,20.10
2022-07-29T04:39:05.484Z,20.09
2022-07-29T04:41:33.302Z,20.02
2022-07-29T04:44:06.003Z,19.93
2022-07-29T04:46:34.038Z,19.84
2022-07-29T04:49:03.307Z,19.72
2022-07-29T04:51:30.752Z,19.60
2022-07-29T04:53:57.282Z,19.48
2022-07-29T04:56:25.549Z,19.34
2022-07-29T04:58:52.310Z,19.27
2022-07-29T05:01:19.823Z,19.20
2022-07-29T05:03:47.303Z,19.14
2022-07-29T05:06:14.344Z,19.10
2022-07-29T05:08:41.935Z,19.07
2022-07-29T05:11:11.745Z,19.09
2022-07-29T05:13:45.723Z,19.17
2022-07-29T05:16:14.342Z,19.22
2022-07-29T05:18:42.615Z,19.28
2022-07-29T05:21:08.993Z,19.38
2022-07-29T05:23:35.471Z,19.52
2022-07-29T05:26:02.060Z,19.65
2022-07-29T05:28:28.771Z,19.77
2022-07-29T05:30:55.259Z,19.95
2022-07-29T05:33:35.418Z,20.09
2022-07-29T05:36:07.301Z,20.16
2022-07-29T05:38:35.175Z,20.25
2022-07-29T05:41:01.796Z,20.37
2022-07-29T05:43:28.803Z,20.57
2022-07-29T05:45:55.906Z,20.70
2022-07-29T05:48:23.160Z,20.77
2022-07-29T05:50:49.611Z,20.88
2022-07-29T05:53:18.764Z,21.03
2022-07-29T05:55:48.439Z,21.18
2022-07-29T05:58:15.331Z,21.33
2022-07-29T06:00:42.299Z,21.51
2022-07-29T06:03:09.788Z,21.78
2022-07-29T06:05:36.199Z,22.08
2022-07-29T06:08:02.839Z,22.38
2022-07-29T06:10:29.453Z,22.58
2022-07-29T06:12:55.985Z,22.64
2022-07-29T06:15:22.681Z,22.66
2022-07-29T06:18:00.790Z,22.62
2022-07-29T06:20:32.551Z,22.69
2022-07-29T06:23:00.000Z,22.73
2022-07-29T06:25:29.536Z,22.74
2022-07-29T06:27:56.052Z,22.76
2022-07-29T06:30:22.681Z,22.72
2022-07-29T06:32:49.967Z,22.77
2022-07-29T06:38:09.585Z,22.83
2022-07-29T06:41:00.327Z,22.84
2022-07-29T06:43:52.065Z,22.88
2022-07-29T06:46:22.669Z,23.00
2022-07-29T06:48:50.527Z,22.96
2022-07-29T06:51:23.177Z,22.96
2022-07-29T06:53:58.258Z,23.07
2022-07-29T06:56:38.940Z,23.00
2022-07-29T06:59:10.643Z,22.87
2022-07-29T07:01:38.685Z,22.67
2022-07-29T07:04:07.024Z,22.52
2022-07-29T07:06:33.645Z,22.33
2022-07-29T07:09:00.031Z,22.29
2022-07-29T07:11:26.514Z,22.36
2022-07-29T07:13:53.713Z,22.43
2022-07-29T07:16:20.729Z,22.50
2022-07-29T07:18:47.279Z,22.50
2022-07-29T07:21:18.817Z,22.47
2022-07-29T07:23:46.794Z,22.47
2022-07-29T07:26:13.567Z,22.52
2022-07-29T07:28:41.283Z,22.56
2022-07-29T07:31:08.179Z,22.62
2022-07-29T07:33:34.802Z,22.67
2022-07-29T07:36:01.351Z,22.76
2022-07-29T07:38:28.221Z,22.79
2022-07-29T07:40:54.731Z,22.90
2022-07-29T07:43:23.155Z,23.02
2022-07-29T07:46:00.243Z,23.12
2022-07-29T07:48:35.200Z,23.19
2022-07-29T07:51:01.949Z,23.24
2022-07-29T07:53:30.150Z,23.33
2022-07-29T07:56:13.008Z,23.37
2022-07-29T07:58:39.658Z,23.43
2022-07-29T08:01:06.245Z,23.48
2022-07-29T08:03:33.668Z,23.56
2022-07-29T08:06:00.579Z,23.68
2022-07-29T08:08:27.935Z,23.78
2022-07-29T08:10:56.328Z,23.85
2022-07-29T08:13:30.558Z,23.87
2022-07-29T08:16:11.982Z,23.90
2022-07-29T08:18:40.254Z,23.97
2022-07-29T08:21:06.647Z,24.13
2022-07-29T08:23:46.831Z,24.28
2022-07-29T08:26:15.921Z,24.39
2022-07-29T08:28:49.077Z,24.53
2022-07-29T08:31:16.819Z,24.68
2022-07-29T08:33:43.958Z,24.79
2022-07-29T08:36:10.451Z,25.00
2022-07-29T08:38:36.900Z,25.21
2022-07-29T08:41:03.865Z,25.32
2022-07-29T08:43:30.254Z,25.38
2022-07-29T08:45:56.725Z,25.32
2022-07-29T08:48:24.125Z,25.38
2022-07-29T08:50:56.845Z,25.44
2022-07-29T08:53:27.583Z,25.54
2022-07-29T08:55:56.555Z,25.58
2022-07-29T08:58:25.886Z,25.63
2022-07-29T09:00:56.128Z,25.75
2022-07-29T09:03:41.710Z,25.95
2022-07-29T09:06:08.453Z,26.15
2022-07-29T09:08:34.939Z,26.27
2022-07-29T09:11:03.940Z,26.39
2022-07-29T09:13:31.814Z,26.50
2022-07-29T09:15:58.342Z,26.67
2022-07-29T09:18:42.443Z,26.85
2022-07-29T09:21:30.875Z,27.08
2022-07-29T09:24:07.755Z,27.28
2022-07-29T09:26:38.041Z,27.48
2022-07-29T09:29:13.823Z,27.67
2022-07-29T09:31:42.982Z,27.86
2022-07-29T09:34:10.765Z,28.09
2022-07-29T09:36:46.753Z,28.14
2022-07-29T09:39:15.691Z,28.17
2022-07-29T09:41:55.474Z,28.23
2022-07-29T09:44:23.111Z,28.32
2022-07-29T09:47:06.620Z,28.34
2022-07-29T09:49:50.374Z,28.31
2022-07-29T09:52:17.135Z,28.31
2022-07-29T09:54:43.717Z,28.33
2022-07-29T09:57:26.172Z,28.34
2022-07-29T10:00:03.861Z,28.18
2022-07-29T10:02:40.035Z,28.03
2022-07-29T10:05:17.163Z,27.94
2022-07-29T10:07:49.386Z,27.83
2022-07-29T10:10:21.545Z,27.75
2022-07-29T10:13:04.592Z,27.70
2022-07-29T10:15:41.243Z,27.72
2022-07-29T10:18:11.697Z,27.81
2022-07-29T10:20:40.109Z,27.83
2022-07-29T10:23:06.972Z,27.82
2022-07-29T10:25:33.809Z,27.82
2022-07-29T10:28:00.222Z,27.88
2022-07-29T10:30:27.830Z,27.97
2022-07-29T10:33:07.172Z,28.03
2022-07-29T10:36:05.488Z,28.06
2022-07-29T10:38:47.225Z,28.11
2022-07-29T10:44:30.397Z,28.56
2022-07-29T10:46:57.247Z,28.67
2022-07-29T10:49:27.391Z,28.60
2022-07-29T10:52:01.268Z,28.54
2022-07-29T10:54:34.602Z,28.61
2022-07-29T10:57:16.016Z,28.68
2022-07-29T10:59:53.138Z,28.70
2022-07-29T11:02:49.872Z,28.74
2022-07-29T11:05:19.798Z,28.73
2022-07-29T11:11:21.987Z,28.71
2022-07-29T11:13:55.428Z,28.63
2022-07-29T11:16:22.842Z,28.52
2022-07-29T11:19:13.717Z,28.49
2022-07-29T11:21:53.680Z,28.58
2022-07-29T11:24:28.837Z,28.66
2022-07-29T11:27:18.358Z,28.57
2022-07-29T11:30:07.561Z,28.45
2022-07-29T11:32:44.597Z,28.33
2022-07-29T11:35:37.215Z,28.29
2022-07-29T11:38:27.811Z,28.36
2022-07-29T11:44:06.383Z,28.53
2022-07-29T11:46:49.713Z,28.60
2022-07-29T11:49:32.596Z,28.76
2022-07-29T11:52:02.356Z,28.94
2022-07-29T11:54:57.171Z,29.11
2022-07-29T11:57:21.978Z,29.37
2022-07-29T11:59:49.664Z,29.62
2022-07-29T12:02:36.666Z,29.88
2022-07-29T12:05:10.662Z,30.18
2022-07-29T12:07:41.211Z,30.31
2022-07-29T12:10:19.992Z,30.34
2022-07-29T12:12:58.140Z,30.34
2022-07-29T12:15:45.608Z,30.21
2022-07-29T12:18:18.950Z,30.11
2022-07-29T12:20:47.001Z,30.24
2022-07-29T12:23:16.690Z,30.30
2022-07-29T12:25:49.977Z,30.20
2022-07-29T12:28:27.445Z,30.08
2022-07-29T12:30:54.581Z,30.01
2022-07-29T12:33:27.935Z,30.12
2022-07-29T12:36:07.054Z,30.29
2022-07-29T12:38:36.208Z,30.33
2022-07-29T12:41:04.576Z,30.29
2022-07-29T12:43:31.607Z,30.26
2022-07-29T12:45:58.419Z,30.15
2022-07-29T12:48:36.300Z,30.06
2022-07-29T12:51:04.781Z,29.94
2022-07-29T12:53:31.589Z,29.88
2022-07-29T12:56:07.985Z,29.92
2022-07-29T12:58:42.343Z,29.99
2022-07-29T13:01:18.455Z,30.06
2022-07-29T13:03:59.706Z,30.23
2022-07-29T13:06:51.056Z,30.36
2022-07-29T13:09:19.977Z,30.30
2022-07-29T13:11:49.713Z,30.23
2022-07-29T13:14:37.339Z,30.17
2022-07-29T13:17:11.968Z,30.26
2022-07-29T13:19:45.894Z,30.36
2022-07-29T13:22:25.034Z,30.28
2022-07-29T13:24:57.519Z,30.05
2022-07-29T13:27:26.554Z,29.90
2022-07-29T13:29:56.877Z,29.89
2022-07-29T13:32:27.850Z,29.87
2022-07-29T13:35:00.471Z,29.88
2022-07-29T13:37:29.912Z,29.89
2022-07-29T13:39:57.385Z,29.84
2022-07-29T13:42:25.228Z,29.79
2022-07-29T13:44:52.462Z,29.81
2022-07-29T13:47:20.467Z,29.76
2022-07-29T13:49:47.028Z,29.68
2022-07-29T13:52:14.402Z,29.61
2022-07-29T13:54:42.623Z,29.54
2022-07-29T13:57:13.122Z,29.45
2022-07-29T13:59:42.849Z,29.39
2022-07-29T14:02:11.133Z,29.45
2022-07-29T14:04:39.434Z,29.45
2022-07-29T14:07:07.504Z,29.43
2022-07-29T14:09:41.197Z,29.42
2022-07-29T14:12:09.957Z,29.48
2022-07-29T14:14:42.067Z,29.42
2022-07-29T14:17:08.702Z,29.42
2022-07-29T14:19:36.034Z,29.32
2022-07-29T14:22:04.274Z,29.25
2022-07-29T14:24:30.877Z,29.12
2022-07-29T14:26:59.362Z,29.02
2022-07-29T14:29:37.073Z,28.94
2022-07-29T14:32:07.640Z,28.85
2022-07-29T14:34:35.458Z,28.75
2022-07-29T14:37:05.462Z,28.70
2022-07-29T14:39:42.473Z,28.69
2022-07-29T14:42:11.525Z,28.75
2022-07-29T14:44:41.622Z,28.79
2022-07-29T14:47:08.614Z,28.88
2022-07-29T14:49:37.234Z,28.98
2022-07-29T14:52:04.451Z,28.99
2022-07-29T14:54:30.946Z,29.01
2022-07-29T14:56:57.505Z,29.09
2022-07-29T14:59:24.104Z,29.15
2022-07-29T15:01:50.474Z,29.16
2022-07-29T15:04:20.301Z,29.13
2022-07-29T15:06:46.785Z,29.13
2022-07-29T15:09:13.716Z,29.13
2022-07-29T15:11:40.306Z,29.07
2022-07-29T15:14:09.100Z,29.07
2022-07-29T15:16:37.715Z,29.09
2022-07-29T15:19:05.050Z,29.07
2022-07-29T15:21:32.202Z,29.03
2022-07-29T15:23:58.676Z,28.97
2022-07-29T15:26:25.241Z,28.92
2022-07-29T15:28:53.676Z,28.86
2022-07-29T15:31:20.481Z,28.77
2022-07-29T15:33:47.164Z,28.76
2022-07-29T15:36:35.677Z,28.74
2022-07-29T15:39:00.742Z,28.78
2022-07-29T15:41:27.822Z,28.75
2022-07-29T15:43:54.279Z,28.65
2022-07-29T15:46:40.206Z,28.48
2022-07-29T15:49:07.744Z,28.43
2022-07-29T15:51:34.385Z,28.39
2022-07-29T15:54:03.176Z,28.33
2022-07-29T15:56:30.524Z,28.24
2022-07-29T15:58:58.013Z,28.16
2022-07-29T16:01:24.628Z,28.09
2022-07-29T16:03:52.420Z,28.03
2022-07-29T16:06:26.189Z,27.96
2022-07-29T16:09:06.752Z,27.90
2022-07-29T16:11:40.182Z,27.83
2022-07-29T16:14:20.166Z,27.75
2022-07-29T16:16:52.416Z,27.67
2022-07-29T16:19:23.175Z,27.54
2022-07-29T16:21:49.982Z,27.46
2022-07-29T16:24:16.481Z,27.41
2022-07-29T16:26:42.895Z,27.35
2022-07-29T16:29:09.344Z,27.29
2022-07-29T16:31:36.846Z,27.27
2022-07-29T16:34:03.240Z,27.28
2022-07-29T16:36:29.721Z,27.32
2022-07-29T16:38:56.536Z,27.35
2022-07-29T16:41:23.099Z,27.36
2022-07-29T16:43:49.548Z,27.34
2022-07-29T16:46:18.584Z,27.26
2022-07-29T16:48:45.947Z,27.16
2022-07-29T16:51:14.487Z,27.13
2022-07-29T16:53:41.621Z,27.10
2022-07-29T16:56:11.170Z,27.07
2022-07-29T16:58:43.625Z,27.02
2022-07-29T17:01:11.448Z,27.00
2022-07-29T17:04:00.125Z,26.90
2022-07-29T17:06:29.406Z,26.81
2022-07-29T17:08:56.767Z,26.76
2022-07-29T17:11:52.530Z,26.71
2022-07-29T17:14:10.283Z,26.66
2022-07-29T17:16:37.782Z,26.62
2022-07-29T17:19:04.725Z,26.56
2022-07-29T17:21:31.276Z,26.51
2022-07-29T17:23:58.797Z,26.48
2022-07-29T17:26:27.075Z,26.47
2022-07-29T17:28:55.502Z,26.48
2022-07-29T17:31:22.790Z,26.42
2022-07-29T17:33:50.049Z,26.36
2022-07-29T17:36:23.988Z,26.28
2022-07-29T17:38:52.710Z,26.20
2022-07-29T17:41:21.470Z,26.12
2022-07-29T17:43:49.096Z,26.05
2022-07-29T17:46:18.168Z,25.98
2022-07-29T17:48:45.244Z,25.95
2022-07-29T17:51:12.431Z,25.91
2022-07-29T17:53:38.939Z,25.87
2022-07-29T17:56:05.497Z,25.80
2022-07-29T17:58:32.489Z,25.72
2022-07-29T18:00:59.025Z,25.62
2022-07-29T18:03:26.322Z,25.49
2022-07-29T18:05:53.203Z,25.40
2022-07-29T18:08:19.874Z,25.31
2022-07-29T18:10:46.428Z,25.20
2022-07-29T18:13:13.204Z,25.10
2022-07-29T18:15:40.399Z,25.01
2022-07-29T18:18:07.334Z,24.93
2022-07-29T18:20:34.139Z,24.84
2022-07-29T18:23:00.874Z,24.74
2022-07-29T18:25:28.988Z,24.63
2022-07-29T18:28:00.292Z,24.51
2022-07-29T18:30:28.537Z,24.37
2022-07-29T18:33:19.676Z,24.25
2022-07-29T18:35:41.804Z,24.12
2022-07-29T18:38:08.237Z,24.00
2022-07-29T18:40:34.801Z,23.88
2022-07-29T18:43:01.332Z,23.74
2022-07-29T18:45:28.948Z,23.61
2022-07-29T18:47:57.571Z,23.51
2022-07-29T18:50:29.225Z,23.40
2022-07-29T18:52:58.097Z,23.31
2022-07-29T18:55:25.171Z,23.20
2022-07-29T18:57:54.289Z,23.10
2022-07-29T19:00:24.825Z,23.00
2022-07-29T19:02:52.509Z,22.88
2022-07-29T19:05:22.380Z,22.78
2022-07-29T19:07:49.380Z,22.69
2022-07-29T19:10:15.931Z,22.59
2022-07-29T19:12:42.693Z,22.49
2022-07-29T19:15:10.533Z,22.39
2022-07-29T19:17:38.325Z,22.27
2022-07-29T19:20:07.697Z,22.19
2022-07-29T19:22:35.285Z,22.11
2022-07-29T19:25:02.592Z,22.03
2022-07-29T19:27:29.154Z,21.96
2022-07-29T19:29:59.361Z,21.89
2022-07-29T19:32:27.904Z,21.81
2022-07-29T19:35:14.067Z,21.74
2022-07-29T19:37:40.478Z,21.66
2022-07-29T19:40:09.497Z,21.59
2022-07-29T19:42:38.646Z,21.51
2022-07-29T19:45:07.372Z,21.43
2022-07-29T19:47:33.985Z,21.35
2022-07-29T19:50:00.769Z,21.23
2022-07-29T19:52:27.833Z,21.12
2022-07-29T19:54:54.417Z,21.04
2022-07-29T19:57:21.312Z,20.97
2022-07-29T19:59:47.795Z,20.90
2022-07-29T20:02:17.263Z,20.84
2022-07-29T20:04:43.958Z,20.79
2022-07-29T20:07:12.344Z,20.74
2022-07-29T20:09:40.317Z,20.71
2022-07-29T20:12:10.887Z,20.66
2022-07-29T20:14:37.573Z,20.62
2022-07-29T20:17:05.407Z,20.58
2022-07-29T20:19:33.447Z,20.56
2022-07-29T20:22:00.305Z,20.55
2022-07-29T20:24:29.725Z,20.51
2022-07-29T20:26:57.581Z,20.48
2022-07-29T20:29:24.983Z,20.47
2022-07-29T20:31:52.242Z,20.45
2022-07-29T20:34:21.494Z,20.43
2022-07-29T20:36:53.345Z,20.41
2022-07-29T20:39:20.549Z,20.36
2022-07-29T20:41:50.630Z,20.34
2022-07-29T20:44:19.163Z,20.32
2022-07-29T20:46:45.688Z,20.29
2022-07-29T20:49:12.333Z,20.27
2022-07-29T20:51:43.684Z,20.25
2022-07-29T20:54:11.617Z,20.23
2022-07-29T20:56:39.280Z,20.22
2022-07-29T20:59:09.537Z,20.22
2022-07-29T21:01:36.718Z,20.22
2022-07-29T21:04:05.067Z,20.21
2022-07-29T21:06:34.203Z,20.20
2022-07-29T21:09:00.741Z,20.20
2022-07-29T21:11:43.265Z,20.18
2022-07-29T21:14:27.533Z,20.15
2022-07-29T21:16:54.220Z,20.10
2022-07-29T21:19:20.700Z,20.05
2022-07-29T21:21:47.365Z,20.01
2022-07-29T21:24:13.781Z,19.99
2022-07-29T21:26:47.294Z,19.98
2022-07-29T21:29:21.059Z,19.97
2022-07-29T21:31:48.085Z,19.96
2022-07-29T21:34:15.985Z,19.94
2022-07-29T21:36:48.212Z,19.91
2022-07-29T21:39:15.248Z,19.89
2022-07-29T21:41:42.785Z,19.85
2022-07-29T21:44:09.133Z,19.83
2022-07-29T21:46:36.223Z,19.81
2022-07-29T21:49:02.755Z,19.79
2022-07-29T21:51:29.171Z,19.75
2022-07-29T21:53:55.614Z,19.72
2022-07-29T21:56:23.605Z,19.67
2022-07-29T21:58:54.561Z,19.63
2022-07-29T22:01:21.061Z,19.59
2022-07-29T22:03:48.748Z,19.55
2022-07-29T22:06:18.258Z,19.52
2022-07-29T22:08:45.497Z,19.50
2022-07-29T22:11:12.668Z,19.45
2022-07-29T22:13:39.170Z,19.41
2022-07-29T22:16:06.175Z,19.38
2022-07-29T22:18:33.989Z,19.36
2022-07-29T22:21:00.439Z,19.32
2022-07-29T22:23:27.426Z,19.28
2022-07-29T22:25:53.821Z,19.26
2022-07-29T22:28:20.579Z,19.23
2022-07-29T22:30:47.108Z,19.20
2022-07-29T22:33:17.454Z,19.16
2022-07-29T22:35:45.720Z,19.12
2022-07-29T22:38:17.561Z,19.07
2022-07-29T22:40:43.956Z,19.04
2022-07-29T22:43:10.337Z,19.00
2022-07-29T22:45:37.250Z,18.98
2022-07-29T22:48:06.025Z,18.96
2022-07-29T22:50:33.030Z,18.94
2022-07-29T22:52:59.562Z,18.90
2022-07-29T22:55:25.976Z,18.87
2022-07-29T22:57:52.550Z,18.83
2022-07-29T23:00:19.016Z,18.81
2022-07-29T23:02:45.374Z,18.79
2022-07-29T23:05:15.164Z,18.75
2022-07-29T23:07:42.991Z,18.70
2022-07-29T23:10:09.756Z,18.64
2022-07-29T23:12:37.380Z,18.61
2022-07-29T23:15:05.369Z,18.59
2022-07-29T23:17:32.208Z,18.58
2022-07-29T23:20:06.993Z,18.57
2022-07-29T23:22:34.602Z,18.55
2022-07-29T23:25:01.165Z,18.54
2022-07-29T23:27:30.535Z,18.53
2022-07-29T23:29:57.053Z,18.52
2022-07-29T23:32:24.455Z,18.51
2022-07-29T23:34:50.860Z,18.50
2022-07-29T23:37:20.113Z,18.49
2022-07-29T23:39:46.483Z,18.49
2022-07-29T23:42:12.986Z,18.47
2022-07-29T23:44:39.783Z,18.45
2022-07-29T23:47:06.208Z,18.41
2022-07-29T23:49:33.611Z,18.38
2022-07-29T23:52:00.262Z,18.36
2022-07-29T23:54:26.676Z,18.35
2022-07-29T23:56:53.202Z,18.34
2022-07-29T23:59:19.639Z,18.33
